Terminal Aerodrome Forecast
Issued by NWS Amarillo, TX

Home | Current Version | Previous Version | Text Only | Print | Product List | Glossary On
Versions: 1 2 3 4 5 6 7 8 9 10 11 12 13
000
FTUS44 KAMA 250520
TAFGUY
TAF
KGUY 250520Z 2506/2606 18018KT P6SM SKC
     FM250800 20008KT P6SM SKC
     FM251700 21015G25KT P6SM SKC=

USA.gov is the U.S. government's official web portal to all federal, state and local government web resources and services.